Time;durP1;ratioP1;P1;durP2;ratioP2;P2;SDS_P1;SDS_P2;PMS_P1;PMS_P2;Temp;Humidity;BMP_temperature;BMP_pressure;BME280_temperature;BME280_humidity;BME280_pressure;Samples;Min_cycle;Max_cycle;Signal;HPM_P1;HPM_P2
2023/12/10 00:01:58;;;;;;;26.33;15.47;;;;;;;3.34;100.00;63266.69;5050822;28;20203;-54
2023/12/10 00:04:24;;;;;;;23.47;14.07;;;;;;;3.26;100.00;63263.53;5050851;28;20201;-58
2023/12/10 00:06:49;;;;;;;31.63;16.30;;;;;;;2.94;100.00;63223.25;5049316;28;20260;-54
2023/12/10 00:09:15;;;;;;;25.63;15.23;;;;;;;2.86;100.00;63217.06;5050642;28;20200;-58
2023/12/10 00:11:40;;;;;;;30.33;15.10;;;;;;;3.01;100.00;63233.88;5050740;28;20236;-58
2023/12/10 00:14:06;;;;;;;27.30;15.03;;;;;;;2.96;100.00;63227.91;5051131;28;20210;-55
2023/12/10 00:16:31;;;;;;;24.17;13.20;;;;;;;2.99;100.00;63233.69;5032967;28;20209;-54
2023/12/10 00:18:57;;;;;;;28.23;16.17;;;;;;;3.01;100.00;63233.38;5050529;28;20723;-54
2023/12/10 00:21:23;;;;;;;29.03;15.23;;;;;;;3.04;100.00;63239.09;5032398;28;20192;-52
2023/12/10 00:23:49;;;;;;;29.27;15.63;;;;;;;2.80;100.00;63213.59;5050443;28;20272;-55
2023/12/10 00:26:14;;;;;;;27.07;14.93;;;;;;;2.99;100.00;63231.72;5032563;28;20210;-51
2023/12/10 00:28:40;;;;;;;31.27;15.53;;;;;;;3.01;100.00;63233.38;5050572;28;20207;-55
2023/12/10 00:31:09;;;;;;;30.93;15.53;;;;;;;3.18;100.00;63252.38;5050687;28;20193;-55
2023/12/10 00:33:35;;;;;;;30.43;15.30;;;;;;;3.01;100.00;63230.88;5032377;28;20667;-55
2023/12/10 00:36:00;;;;;;;26.60;14.77;;;;;;;3.13;100.00;63246.41;5050236;28;20692;-57
2023/12/10 00:38:26;;;;;;;27.20;14.67;;;;;;;3.16;100.00;63249.63;5050242;28;20251;-56
2023/12/10 00:40:51;;;;;;;22.00;13.53;;;;;;;3.27;100.00;63264.63;5050630;28;20197;-53
2023/12/10 00:43:17;;;;;;;26.73;15.47;;;;;;;3.28;100.00;63263.22;5050261;28;20609;-54
2023/12/10 00:45:43;;;;;;;25.47;14.67;;;;;;;3.20;100.00;63253.97;5050342;28;20795;-54
2023/12/10 00:48:09;;;;;;;25.90;15.50;;;;;;;3.29;100.00;63264.31;5032607;28;20253;-54
2023/12/10 00:50:35;;;;;;;26.47;14.80;;;;;;;3.31;100.00;63266.47;5050406;28;20255;-55
2023/12/10 00:53:04;;;;;;;25.90;15.33;;;;;;;3.29;100.00;63266.78;5050016;28;20216;-55
2023/12/10 00:55:30;;;;;;;28.10;15.43;;;;;;;3.25;100.00;63259.94;5052947;28;20217;-54
2023/12/10 00:57:55;;;;;;;25.03;14.40;;;;;;;3.32;100.00;63265.06;5053836;28;20599;-56
2023/12/10 01:00:21;;;;;;;26.33;15.03;;;;;;;3.19;100.00;63250.94;5035617;28;20210;-54
2023/12/10 01:02:50;;;;;;;27.90;15.27;;;;;;;2.92;100.00;63226.06;5053710;28;20209;-54
2023/12/10 01:05:16;;;;;;;29.20;14.77;;;;;;;3.02;100.00;63234.44;5053395;28;20259;-53
2023/12/10 01:07:42;;;;;;;26.13;14.93;;;;;;;3.04;100.00;63237.16;5053159;28;20662;-54
2023/12/10 01:10:07;;;;;;;30.23;15.60;;;;;;;3.16;100.00;63250.19;5053245;28;20304;-54
2023/12/10 01:12:36;;;;;;;28.00;16.43;;;;;;;3.14;100.00;63250.50;5053689;28;20728;-54
2023/12/10 01:15:05;;;;;;;26.50;15.63;;;;;;;2.97;100.00;63229.53;5053293;28;20205;-58
2023/12/10 01:17:31;;;;;;;25.30;15.33;;;;;;;3.08;100.00;63244.00;5053590;28;20233;-57
2023/12/10 01:19:58;;;;;;;24.90;15.20;;;;;;;3.25;100.00;63259.94;5053402;28;20190;-56
2023/12/10 01:22:24;;;;;;;24.43;15.33;;;;;;;3.17;100.00;63251.25;5035509;28;20315;-59
2023/12/10 01:24:52;;;;;;;27.27;15.47;;;;;;;3.29;100.00;63264.31;5053336;28;20630;-53
2023/12/10 01:27:18;;;;;;;28.07;15.83;;;;;;;3.14;100.00;63250.50;5053321;28;20228;-53
2023/12/10 01:29:43;;;;;;;29.30;16.07;;;;;;;3.00;100.00;63229.78;5053223;28;20210;-54
2023/12/10 01:32:13;;;;;;;35.63;15.43;;;;;;;3.04;100.00;63239.09;5052800;28;20213;-54
2023/12/10 01:34:38;;;;;;;28.50;16.50;;;;;;;3.02;100.00;63235.00;5053493;28;20227;-56
2023/12/10 01:37:05;;;;;;;30.20;16.63;;;;;;;3.09;100.00;63242.56;5053168;28;20256;-54
2023/12/10 01:39:31;;;;;;;28.50;15.87;;;;;;;3.28;100.00;63260.72;5052987;28;20201;-57
2023/12/10 01:41:56;;;;;;;29.70;15.70;;;;;;;3.08;100.00;63244.00;5053134;28;20229;-55
2023/12/10 01:44:22;;;;;;;27.13;15.63;;;;;;;3.07;100.00;63242.91;5035423;28;20209;-54
2023/12/10 01:46:48;;;;;;;26.30;15.47;;;;;;;3.04;100.00;63237.16;5052651;28;20250;-55
2023/12/10 01:49:19;;;;;;;28.00;15.33;;;;;;;2.96;100.00;63230.97;5052568;28;20259;-55
2023/12/10 01:51:45;;;;;;;25.27;14.40;;;;;;;3.06;100.00;63241.81;5051339;28;20217;-53
2023/12/10 01:54:24;;;;;;;27.27;14.93;;;;;;;2.87;100.00;63221.19;5052735;28;20260;-56
2023/12/10 01:56:49;;;;;;;26.90;14.27;;;;;;;2.93;100.00;63222.72;5052523;28;20208;-54
2023/12/10 01:59:19;;;;;;;23.03;13.00;;;;;;;2.99;100.00;63234.22;5052935;28;20199;-54
2023/12/10 02:01:48;;;;;;;25.30;14.03;;;;;;;3.03;100.00;63235.53;5053040;28;20224;-54
2023/12/10 02:04:15;;;;;;;28.13;16.00;;;;;;;3.01;100.00;63233.38;5052488;28;20239;-54
2023/12/10 02:06:42;;;;;;;25.57;14.20;;;;;;;2.95;100.00;63229.88;5052365;28;20253;-54
2023/12/10 02:09:13;;;;;;;26.93;14.50;;;;;;;3.11;100.00;63242.25;5053026;28;20202;-54
2023/12/10 02:11:40;;;;;;;22.83;13.47;;;;;;;3.29;100.00;63266.78;5052478;28;20288;-54
2023/12/10 02:14:06;;;;;;;24.83;13.70;;;;;;;3.21;100.00;63252.59;5052529;28;20194;-55
2023/12/10 02:16:31;;;;;;;26.77;16.10;;;;;;;3.07;100.00;63242.91;5052371;28;20213;-54
2023/12/10 02:18:57;;;;;;;26.33;14.83;;;;;;;3.18;100.00;63254.84;5052562;28;20296;-52
2023/12/10 02:21:24;;;;;;;24.00;13.73;;;;;;;3.09;100.00;63242.06;5052363;28;20200;-54
2023/12/10 02:24:09;;;;;;;27.77;14.43;;;;;;;3.29;100.00;63264.31;5034822;28;20200;-55
2023/12/10 02:26:36;;;;;;;21.93;14.50;;;;;;;3.08;100.00;63241.50;5052110;28;20701;-54
2023/12/10 02:29:03;;;;;;;25.87;14.40;;;;;;;3.03;100.00;63235.53;5052068;28;20285;-54
2023/12/10 02:31:29;;;;;;;26.93;13.87;;;;;;;2.91;100.00;63222.50;5052072;28;20199;-55
2023/12/10 02:33:55;;;;;;;24.73;13.63;;;;;;;2.88;100.00;63224.22;5052611;28;20207;-55
2023/12/10 02:36:21;;;;;;;30.20;14.27;;;;;;;2.96;100.00;63225.44;5051977;28;20711;-54
2023/12/10 02:38:49;;;;;;;24.87;14.13;;;;;;;3.08;100.00;63239.00;5034100;28;20272;-55
2023/12/10 02:41:14;;;;;;;26.57;14.63;;;;;;;2.97;100.00;63232.03;5051977;28;20210;-54
2023/12/10 02:43:40;;;;;;;28.77;15.30;;;;;;;2.97;100.00;63229.03;5051917;28;20219;-55
2023/12/10 02:46:05;;;;;;;24.60;13.80;;;;;;;3.07;100.00;63242.38;5052097;28;20209;-55
2023/12/10 02:48:31;;;;;;;24.30;13.67;;;;;;;3.11;100.00;63244.75;5051932;28;20728;-54
2023/12/10 02:50:56;;;;;;;34.73;16.03;;;;;;;2.90;100.00;63218.91;5052028;28;20284;-53
2023/12/10 02:53:22;;;;;;;25.63;13.30;;;;;;;2.77;100.00;63205.34;5052122;28;20294;-55
2023/12/10 02:55:48;;;;;;;24.90;12.53;;;;;;;2.79;100.00;63210.00;5051955;28;20205;-53
2023/12/10 02:58:13;;;;;;;22.40;12.03;;;;;;;2.75;100.00;63205.66;5050278;28;20267;-53
2023/12/10 03:00:39;;;;;;;21.23;12.33;;;;;;;2.95;100.00;63227.38;5051541;28;20232;-55
2023/12/10 03:03:05;;;;;;;25.33;13.03;;;;;;;2.85;100.00;63219.00;5052239;28;20209;-53
2023/12/10 03:05:30;;;;;;;22.83;12.87;;;;;;;3.05;100.00;63238.22;5052065;28;20234;-55
2023/12/10 03:07:56;;;;;;;21.60;11.93;;;;;;;3.12;100.00;63242.81;5033710;28;20610;-55
2023/12/10 03:10:21;;;;;;;22.17;12.20;;;;;;;3.13;100.00;63246.41;5051450;28;20306;-54
2023/12/10 03:12:47;;;;;;;21.67;12.50;;;;;;;2.98;100.00;63230.66;5051679;28;20209;-53
2023/12/10 03:15:13;;;;;;;20.50;12.87;;;;;;;2.84;100.00;63214.91;5051552;28;20207;-52
2023/12/10 03:17:38;;;;;;;23.17;12.90;;;;;;;3.03;100.00;63235.53;5050622;28;20213;-55
2023/12/10 03:20:05;;;;;;;22.87;12.20;;;;;;;2.99;100.00;63233.69;5051584;28;20205;-55
2023/12/10 03:22:31;;;;;;;23.40;12.27;;;;;;;3.02;100.00;63236.94;5051281;28;20211;-54
2023/12/10 03:24:56;;;;;;;21.23;12.17;;;;;;;2.88;100.00;63219.25;5051664;28;20775;-52
2023/12/10 03:27:22;;;;;;;23.97;13.00;;;;;;;2.84;100.00;63214.91;5051045;28;20226;-55
2023/12/10 03:29:48;;;;;;;20.80;12.23;;;;;;;2.70;100.00;63200.25;5051741;28;20223;-54
2023/12/10 03:32:15;;;;;;;22.53;12.03;;;;;;;2.75;100.00;63205.66;5051699;28;20209;-54
2023/12/10 03:34:40;;;;;;;23.77;12.57;;;;;;;2.82;100.00;63215.75;5051639;28;20203;-55
2023/12/10 03:37:06;;;;;;;20.20;11.50;;;;;;;3.05;100.00;63240.72;5051279;28;20216;-54
2023/12/10 03:39:32;;;;;;;22.57;11.80;;;;;;;2.88;100.00;63219.25;5051230;28;20187;-54
2023/12/10 03:41:57;;;;;;;25.07;12.43;;;;;;;2.76;100.00;63208.69;5051228;28;20214;-56
2023/12/10 03:44:23;;;;;;;23.17;13.20;;;;;;;2.78;100.00;63208.94;5051095;28;20286;-55
2023/12/10 03:46:49;;;;;;;23.43;12.57;;;;;;;2.73;100.00;63205.97;5050900;28;20641;-53
2023/12/10 03:49:14;;;;;;;24.60;13.53;;;;;;;2.76;100.00;63209.25;5077628;22;20271;-53
2023/12/10 03:51:40;;;;;;;20.63;13.07;;;;;;;2.84;100.00;63214.91;5067967;28;20205;-55
2023/12/10 03:54:05;;;;;;;24.03;12.60;;;;;;;3.10;100.00;63243.66;5050557;28;20211;-54
2023/12/10 03:56:31;;;;;;;24.23;13.70;;;;;;;2.88;100.00;63217.28;5050832;28;20181;-54
2023/12/10 03:58:56;;;;;;;25.13;14.37;;;;;;;3.00;100.00;63229.78;5051202;28;20284;-53
2023/12/10 04:01:22;;;;;;;23.73;13.37;;;;;;;2.96;100.00;63225.44;5050690;28;20277;-53
2023/12/10 04:03:48;;;;;;;24.97;13.67;;;;;;;3.04;100.00;63237.16;5033082;28;20213;-55
2023/12/10 04:06:13;;;;;;;24.60;13.90;;;;;;;2.72;100.00;63202.41;5050645;28;20269;-53
2023/12/10 04:08:39;;;;;;;23.57;13.63;;;;;;;2.72;100.00;63199.94;5050678;28;20718;-52
2023/12/10 04:11:05;;;;;;;26.13;13.00;;;;;;;2.77;100.00;63209.78;5050481;28;20208;-54
2023/12/10 04:13:31;;;;;;;24.53;13.00;;;;;;;2.75;100.00;63202.66;5050913;28;20221;-54
2023/12/10 04:15:57;;;;;;;22.03;12.57;;;;;;;2.71;100.00;63200.78;5050980;28;20670;-55
2023/12/10 04:18:23;;;;;;;22.20;11.20;;;;;;;2.77;100.00;63207.31;5049331;28;20223;-52
2023/12/10 04:20:48;;;;;;;20.80;10.93;;;;;;;2.99;100.00;63234.22;5050490;28;20263;-53
2023/12/10 04:23:14;;;;;;;18.37;10.20;;;;;;;2.91;100.00;63222.50;5050815;28;20713;-55
2023/12/10 04:25:39;;;;;;;17.00;10.80;;;;;;;2.77;100.00;63210.31;5050615;28;20204;-55
2023/12/10 04:28:07;;;;;;;15.03;9.07;;;;;;;2.88;100.00;63216.75;5033321;28;20812;-55
2023/12/10 04:30:33;;;;;;;16.47;9.43;;;;;;;3.11;100.00;63244.75;5036440;28;20196;-54
2023/12/10 04:32:58;;;;;;;15.13;9.33;;;;;;;2.97;100.00;63229.03;5053585;28;20660;-53
2023/12/10 04:35:24;;;;;;;16.70;9.83;;;;;;;2.75;100.00;63208.16;5053612;28;20201;-55
2023/12/10 04:37:49;;;;;;;14.83;7.73;;;;;;;3.06;100.00;63241.28;5035721;28;20221;-54
2023/12/10 04:40:15;;;;;;;12.67;7.97;;;;;;;2.83;100.00;63216.84;5053717;28;20281;-55
2023/12/10 04:42:42;;;;;;;12.70;8.07;;;;;;;2.66;100.00;63195.91;5054089;28;20355;-54
2023/12/10 04:45:08;;;;;;;14.30;8.70;;;;;;;2.89;100.00;63220.84;5053554;28;20197;-54
2023/12/10 04:47:37;;;;;;;12.67;8.40;;;;;;;2.85;100.00;63218.47;5053295;28;20227;-53
2023/12/10 04:50:03;;;;;;;16.17;8.60;;;;;;;2.73;100.00;63202.97;5054078;28;20188;-54
2023/12/10 04:52:30;;;;;;;21.67;12.90;;;;;;;2.86;100.00;63215.13;5053820;28;20209;-54
2023/12/10 04:54:58;;;;;;;18.50;11.93;;;;;;;2.71;100.00;63203.81;5052107;28;20211;-51
2023/12/10 04:57:23;;;;;;;16.73;10.13;;;;;;;2.68;100.00;63202.50;5053621;28;20209;-53
2023/12/10 04:59:49;;;;;;;18.00;9.93;;;;;;;2.80;100.00;63213.59;5053345;28;20255;-57
2023/12/10 05:02:15;;;;;;;16.50;10.63;;;;;;;2.56;100.00;63188.06;5053304;28;20300;-55
2023/12/10 05:04:40;;;;;;;16.80;10.67;;;;;;;2.66;100.00;63197.84;5053504;28;20198;-54
2023/12/10 05:07:06;;;;;;;18.20;10.00;;;;;;;2.67;100.00;63196.44;5053557;28;20208;-53
2023/12/10 05:09:32;;;;;;;14.27;9.00;;;;;;;2.45;100.00;63175.59;5053582;28;20206;-53
2023/12/10 05:11:58;;;;;;;14.40;8.77;;;;;;;2.62;100.00;63193.50;5053323;28;20215;-54
2023/12/10 05:14:23;;;;;;;16.10;9.83;;;;;;;2.67;100.00;63196.44;5051887;28;20255;-56
2023/12/10 05:16:49;;;;;;;14.70;8.80;;;;;;;2.67;100.00;63196.44;5053086;28;20213;-53
2023/12/10 05:19:14;;;;;;;16.57;9.70;;;;;;;2.53;100.00;63186.75;5053590;28;20284;-53
2023/12/10 05:21:40;;;;;;;16.13;10.17;;;;;;;2.57;100.00;63188.59;5053512;28;20597;-53
2023/12/10 05:24:05;;;;;;;16.40;9.23;;;;;;;2.69;100.00;63199.16;5052879;28;20204;-53
2023/12/10 05:26:31;;;;;;;17.93;10.53;;;;;;;2.75;100.00;63208.16;5053020;28;20216;-53
2023/12/10 05:28:57;;;;;;;18.33;10.17;;;;;;;2.68;100.00;63198.06;5051793;28;20222;-53
2023/12/10 05:31:22;;;;;;;13.60;9.13;;;;;;;2.52;100.00;63186.22;5053174;28;20205;-54
2023/12/10 05:33:48;;;;;;;14.90;9.27;;;;;;;2.62;100.00;63191.56;5053397;28;20194;-55
2023/12/10 05:36:14;;;;;;;16.97;9.97;;;;;;;2.65;100.00;63197.28;5052735;28;20203;-54
2023/12/10 05:38:40;;;;;;;18.90;10.40;;;;;;;2.51;100.00;63182.09;5052789;28;20217;-59
2023/12/10 05:41:06;;;;;;;15.93;10.10;;;;;;;2.60;100.00;63191.88;5052110;28;20589;-54
2023/12/10 05:43:31;;;;;;;15.87;9.50;;;;;;;2.46;100.00;63176.69;5052963;28;20217;-54
2023/12/10 05:45:57;;;;;;;17.13;9.70;;;;;;;2.27;100.00;63153.56;5052676;28;20206;-55
2023/12/10 05:48:22;;;;;;;18.53;10.00;;;;;;;2.35;100.00;63162.78;5052866;28;20768;-54
2023/12/10 05:50:48;;;;;;;18.77;11.00;;;;;;;2.50;100.00;63181.03;5053216;28;20192;-55
2023/12/10 05:53:14;;;;;;;17.57;10.30;;;;;;;2.30;100.00;63157.34;5052969;28;20616;-56
2023/12/10 05:55:40;;;;;;;18.17;11.10;;;;;;;2.72;100.00;63201.88;5052432;28;20328;-54
2023/12/10 05:58:05;;;;;;;19.63;10.70;;;;;;;2.61;100.00;63192.44;5034715;28;20244;-55
2023/12/10 06:00:31;;;;;;;21.00;11.23;;;;;;;2.40;100.00;63167.69;5052272;28;20757;-55
2023/12/10 06:02:57;;;;;;;16.90;11.07;;;;;;;2.73;100.00;63201.00;5052113;28;20303;-54
2023/12/10 06:05:22;;;;;;;21.00;12.53;;;;;;;2.60;100.00;63188.84;5052284;28;20278;-55
2023/12/10 06:07:48;;;;;;;21.00;10.87;;;;;;;2.52;100.00;63183.72;5050983;28;20763;-54
2023/12/10 06:10:13;;;;;;;20.27;10.90;;;;;;;2.38;100.00;63165.50;5034496;28;20703;-55
2023/12/10 06:12:39;;;;;;;22.30;11.93;;;;;;;2.48;100.00;63178.84;5052513;28;20221;-52
2023/12/10 06:15:05;;;;;;;19.30;11.57;;;;;;;2.69;100.00;63198.63;5052196;28;20203;-54
2023/12/10 06:17:30;;;;;;;20.90;11.73;;;;;;;2.64;100.00;63196.22;5052534;28;20289;-54
2023/12/10 06:19:56;;;;;;;18.47;11.23;;;;;;;2.55;100.00;63186.44;5052926;28;20622;-56
2023/12/10 06:22:22;;;;;;;20.43;11.90;;;;;;;2.62;100.00;63193.50;5052279;28;20679;-52
2023/12/10 06:24:51;;;;;;;22.07;12.67;;;;;;;2.72;100.00;63202.41;5052610;28;20202;-56
2023/12/10 06:27:16;;;;;;;18.17;11.07;;;;;;;2.69;100.00;63198.63;5052176;28;20642;-54
2023/12/10 06:29:42;;;;;;;17.27;10.80;;;;;;;2.89;100.00;63222.81;5050847;28;20264;-53
2023/12/10 06:32:08;;;;;;;20.27;12.03;;;;;;;2.85;100.00;63214.03;5051888;28;20216;-53
2023/12/10 06:34:33;;;;;;;19.67;11.53;;;;;;;2.54;100.00;63182.88;5052122;28;20202;-53
2023/12/10 06:36:59;;;;;;;20.17;11.93;;;;;;;2.57;100.00;63186.13;5051680;28;20240;-53
2023/12/10 06:39:24;;;;;;;20.03;11.70;;;;;;;2.62;100.00;63191.56;5051712;28;20213;-55
2023/12/10 06:41:50;;;;;;;21.30;12.87;;;;;;;2.92;100.00;63226.06;5051714;28;20288;-53
2023/12/10 06:44:21;;;;;;;22.07;13.13;;;;;;;2.63;100.00;63192.63;5052140;28;20208;-54
2023/12/10 06:46:50;;;;;;;18.90;11.70;;;;;;;2.63;100.00;63194.59;5052222;28;20675;-55
2023/12/10 06:49:16;;;;;;;23.53;13.30;;;;;;;2.71;100.00;63203.81;5052217;28;20208;-53
2023/12/10 06:51:42;;;;;;;22.33;12.30;;;;;;;2.82;100.00;63215.22;5051379;28;20291;-54
2023/12/10 06:54:09;;;;;;;20.40;12.17;;;;;;;2.76;100.00;63206.22;5052044;28;20199;-53
2023/12/10 06:56:39;;;;;;;20.87;11.80;;;;;;;2.77;100.00;63202.34;5051595;28;20193;-56
2023/12/10 06:59:08;;;;;;;22.70;12.37;;;;;;;2.84;100.00;63209.91;5051551;28;20194;-54
2023/12/10 07:01:35;;;;;;;21.40;12.30;;;;;;;2.73;100.00;63201.00;5051570;28;20250;-53
2023/12/10 07:04:01;;;;;;;20.30;11.37;;;;;;;2.71;100.00;63200.78;5051762;28;20213;-53
2023/12/10 07:06:26;;;;;;;20.90;11.83;;;;;;;2.90;100.00;63224.44;5051256;28;20196;-54
2023/12/10 07:08:52;;;;;;;17.03;10.70;;;;;;;3.07;100.00;63237.38;5051531;28;20230;-53
2023/12/10 07:11:25;;;;;;;20.50;10.97;;;;;;;3.12;100.00;63243.34;5033275;28;20197;-54
2023/12/10 07:13:53;;;;;;;15.53;10.50;;;;;;;3.19;100.00;63253.44;5051638;28;20215;-55
2023/12/10 07:16:19;;;;;;;19.60;12.30;;;;;;;2.93;100.00;63227.16;5051526;28;20221;-60
2023/12/10 07:18:44;;;;;;;20.87;12.37;;;;;;;2.77;100.00;63207.84;5051461;28;20288;-54
2023/12/10 07:21:10;;;;;;;20.40;12.23;;;;;;;2.55;100.00;63181.47;5051069;28;20203;-54
2023/12/10 07:23:38;;;;;;;19.53;11.63;;;;;;;2.59;100.00;63188.28;5051724;28;20212;-53
2023/12/10 07:26:05;;;;;;;21.47;12.23;;;;;;;2.82;100.00;63213.28;5051041;28;20243;-54
2023/12/10 07:28:31;;;;;;;20.20;12.27;;;;;;;2.75;100.00;63202.66;5051093;28;20231;-52
2023/12/10 07:30:56;;;;;;;19.57;11.57;;;;;;;2.64;100.00;63196.22;5051013;28;20195;-53
2023/12/10 07:33:22;;;;;;;17.87;11.20;;;;;;;2.90;100.00;63221.97;5051362;28;20292;-54
2023/12/10 07:35:48;;;;;;;17.27;10.83;;;;;;;2.91;100.00;63223.03;5050982;28;20192;-53
2023/12/10 07:38:13;;;;;;;21.00;11.23;;;;;;;2.86;100.00;63217.06;5050864;28;20625;-54
2023/12/10 07:40:39;;;;;;;22.13;12.00;;;;;;;3.28;100.00;63265.16;5051206;28;20569;-53
2023/12/10 07:43:06;;;;;;;24.27;11.57;;;;;;;3.70;100.00;63307.75;5050783;28;20254;-55
2023/12/10 07:45:32;;;;;;;19.47;11.60;;;;;;;4.03;100.00;63341.69;5050745;28;20208;-54
2023/12/10 07:47:57;;;;;;;20.83;12.93;;;;;;;3.91;100.00;63333.09;5050670;28;20225;-52
2023/12/10 07:50:23;;;;;;;19.03;12.37;;;;;;;3.94;100.00;63336.34;5032822;28;20204;-54
2023/12/10 07:52:49;;;;;;;19.77;12.03;;;;;;;4.06;100.00;63346.91;5051031;28;20209;-55
2023/12/10 07:55:14;;;;;;;17.77;10.93;;;;;;;3.99;100.00;63337.34;5051036;28;20208;-54
2023/12/10 07:57:40;;;;;;;19.73;11.17;;;;;;;3.99;100.00;63339.28;5050920;28;20296;-52
2023/12/10 08:00:06;;;;;;;16.97;10.37;;;;;;;4.10;100.00;63348.75;5032913;28;20227;-54
2023/12/10 08:02:32;;;;;;;16.13;10.00;;;;;;;4.46;100.00;63392.34;5049764;28;20224;-53
2023/12/10 08:04:59;;;;;;;17.60;11.00;;;;;;;4.36;100.00;63381.47;5057510;28;20580;-55
2023/12/10 08:07:25;;;;;;;17.63;10.40;;;;;;;4.21;100.00;63363.19;5057106;28;20219;-54
2023/12/10 08:09:53;;;;;;;16.83;9.77;;;;;;;4.81;100.00;63428.47;5057168;28;20693;-53
2023/12/10 08:12:18;;;;;;;19.03;11.67;;;;;;;5.42;100.00;63491.81;5057498;28;20212;-53
2023/12/10 08:14:44;;;;;;;17.20;10.40;;;;;;;5.71;100.00;63528.41;5057711;28;20215;-54
2023/12/10 08:17:10;;;;;;;20.20;11.97;;;;;;;5.95;100.00;63554.00;5057144;28;20255;-52
2023/12/10 08:19:37;;;;;;;18.87;10.60;;;;;;;6.28;97.42;63587.44;5056862;28;20266;-54
2023/12/10 08:22:13;;;;;;;18.70;11.10;;;;;;;6.01;96.48;63558.03;5056965;28;20217;-54
2023/12/10 08:24:40;;;;;;;20.40;11.63;;;;;;;5.77;98.77;63529.38;5057178;28;20227;-54
2023/12/10 08:27:05;;;;;;;15.00;8.57;;;;;;;6.71;93.63;63631.28;5056895;28;20213;-53
2023/12/10 08:29:31;;;;;;;13.40;8.33;;;;;;;7.19;88.24;63686.13;5056967;28;20756;-57
2023/12/10 08:31:56;;;;;;;18.40;10.67;;;;;;;6.95;87.06;63656.91;5057039;28;20573;-56
2023/12/10 08:34:22;;;;;;;15.80;9.93;;;;;;;6.69;93.65;63629.09;5056837;28;20263;-58
2023/12/10 08:36:47;;;;;;;14.17;9.13;;;;;;;6.82;94.11;63645.22;5038752;28;20213;-54
2023/12/10 08:39:13;;;;;;;13.30;9.10;;;;;;;7.47;86.89;63718.63;5056791;28;20197;-60
2023/12/10 08:41:39;;;;;;;14.20;9.60;;;;;;;7.59;84.65;63726.72;5056546;28;20205;-53
2023/12/10 08:44:05;;;;;;;16.23;10.27;;;;;;;7.16;85.59;63684.81;5056793;28;20205;-54
2023/12/10 08:46:30;;;;;;;15.60;9.83;;;;;;;7.25;86.44;63689.63;5057325;28;20205;-54
2023/12/10 08:48:56;;;;;;;14.57;9.23;;;;;;;7.35;84.29;63705.56;5056942;28;20605;-53
2023/12/10 08:51:22;;;;;;;18.00;9.60;;;;;;;7.47;85.03;63718.63;5056578;28;20174;-55
2023/12/10 08:53:47;;;;;;;14.13;9.40;;;;;;;8.45;81.14;63823.13;5056892;28;20254;-55
2023/12/10 08:56:13;;;;;;;15.70;9.33;;;;;;;8.89;76.33;63870.66;5079673;22;20252;-54
2023/12/10 08:58:38;;;;;;;15.03;8.80;;;;;;;8.09;78.68;63783.81;5056709;28;20756;-54
2023/12/10 09:01:06;;;;;;;14.97;9.57;;;;;;;7.54;81.37;63721.81;5056505;28;20219;-53
2023/12/10 09:03:32;;;;;;;16.97;9.03;;;;;;;7.06;85.34;63673.91;5038369;28;20210;-54
2023/12/10 09:05:58;;;;;;;16.47;8.90;;;;;;;6.63;87.87;63627.56;5056649;28;20202;-54
2023/12/10 09:08:27;;;;;;;12.73;9.63;;;;;;;6.41;90.22;63601.06;5038400;28;20235;-53
2023/12/10 09:10:55;;;;;;;18.70;11.03;;;;;;;6.16;90.83;63576.88;5056346;28;20197;-54
2023/12/10 09:13:21;;;;;;;19.07;11.23;;;;;;;5.83;92.88;63539.00;5056362;28;20213;-55
2023/12/10 09:15:46;;;;;;;18.83;9.87;;;;;;;5.33;96.09;63483.97;5052689;28;20217;-53
2023/12/10 09:18:12;;;;;;;18.47;10.43;;;;;;;4.83;100.00;63428.16;5052897;28;20205;-54
2023/12/10 09:20:37;;;;;;;16.83;9.70;;;;;;;4.92;99.95;63442.38;5053104;28;20201;-54
2023/12/10 09:23:03;;;;;;;16.90;10.43;;;;;;;4.97;100.00;63447.81;5052888;28;20745;-54
2023/12/10 09:25:29;;;;;;;17.80;10.40;;;;;;;5.41;97.37;63490.19;5052817;28;20206;-54
2023/12/10 09:27:54;;;;;;;19.10;10.27;;;;;;;5.32;96.33;63485.38;5053353;28;20213;-58
2023/12/10 09:30:20;;;;;;;15.63;9.83;;;;;;;5.47;96.02;63501.72;5053432;28;20216;-57
2023/12/10 09:32:45;;;;;;;19.40;10.90;;;;;;;5.39;95.36;63490.50;5052898;28;20210;-55
2023/12/10 09:35:11;;;;;;;18.77;10.60;;;;;;;5.53;96.30;63505.75;5053273;28;20209;-53
2023/12/10 09:37:37;;;;;;;23.57;10.77;;;;;;;5.71;98.75;63527.84;5034842;28;20651;-54
2023/12/10 09:40:04;;;;;;;17.27;10.93;;;;;;;5.74;99.84;63528.59;5052864;28;20209;-55
2023/12/10 09:42:30;;;;;;;17.27;10.20;;;;;;;6.04;94.68;63563.81;5051290;28;20217;-55
2023/12/10 09:44:55;;;;;;;23.03;11.97;;;;;;;6.21;94.65;63577.34;5053090;28;20216;-53
2023/12/10 09:47:23;;;;;;;20.07;12.27;;;;;;;6.34;93.61;63591.50;5052576;28;20694;-57
2023/12/10 09:49:54;;;;;;;20.93;12.23;;;;;;;6.13;93.37;63573.63;5052616;28;20675;-56
2023/12/10 09:52:19;;;;;;;18.20;11.60;;;;;;;6.56;91.04;63620.50;5051440;28;20361;-53
2023/12/10 09:54:45;;;;;;;23.07;12.33;;;;;;;6.95;89.52;63659.41;5052449;28;20209;-54
2023/12/10 09:57:13;;;;;;;20.57;12.47;;;;;;;7.57;86.59;63725.06;5052348;28;20221;-53
2023/12/10 09:59:39;;;;;;;20.80;12.77;;;;;;;8.48;79.49;63826.41;5052266;28;20202;-54
2023/12/10 10:02:07;;;;;;;21.70;12.57;;;;;;;8.81;80.08;63861.34;5052353;28;20252;-53
2023/12/10 10:04:32;;;;;;;17.97;12.43;;;;;;;9.20;76.15;63901.47;5052244;28;20211;-54
2023/12/10 10:06:58;;;;;;;20.30;12.73;;;;;;;9.64;74.35;63954.03;5052125;28;20214;-55
2023/12/10 10:09:23;;;;;;;19.30;13.07;;;;;;;10.13;71.35;64002.63;5052394;28;20209;-54
2023/12/10 10:11:50;;;;;;;16.10;10.80;;;;;;;10.55;69.74;64048.59;5052300;28;20608;-55
2023/12/10 10:14:19;;;;;;;19.20;11.07;;;;;;;10.85;67.54;64078.34;5050838;28;20687;-54
2023/12/10 10:16:48;;;;;;;17.10;10.33;;;;;;;10.96;64.98;64098.53;5034374;28;20209;-54
2023/12/10 10:19:15;;;;;;;18.13;11.97;;;;;;;10.27;65.92;64019.91;5034199;28;20588;-54
2023/12/10 10:21:44;;;;;;;18.03;11.87;;;;;;;10.45;67.07;64037.09;5052073;28;20205;-54
2023/12/10 10:24:11;;;;;;;18.03;11.47;;;;;;;10.79;66.04;64074.88;5052380;28;20718;-54
2023/12/10 10:26:37;;;;;;;15.17;10.93;;;;;;;11.12;64.45;64112.44;5033800;28;20251;-54
2023/12/10 10:29:07;;;;;;;17.80;11.67;;;;;;;11.20;62.61;64124.25;5051844;28;20201;-55
2023/12/10 10:31:34;;;;;;;18.83;11.63;;;;;;;11.29;62.77;64129.06;5050343;28;20193;-53
2023/12/10 10:34:05;;;;;;;19.17;12.60;;;;;;;11.43;63.20;64146.91;5033975;28;20301;-55
2023/12/10 10:36:35;;;;;;;21.10;13.33;;;;;;;11.58;61.25;64163.38;5051629;28;20212;-54
2023/12/10 10:39:01;;;;;;;18.27;12.20;;;;;;;11.35;61.01;64138.16;5033944;28;20213;-54
2023/12/10 10:41:27;;;;;;;19.03;12.23;;;;;;;11.35;62.98;64133.13;5051592;28;20746;-54
2023/12/10 10:43:54;;;;;;;19.63;11.73;;;;;;;11.59;61.74;64167.00;5051983;28;20204;-54
2023/12/10 10:46:20;;;;;;;20.47;11.97;;;;;;;11.04;60.32;64101.69;5051676;28;20252;-54
2023/12/10 10:48:51;;;;;;;18.73;12.13;;;;;;;11.06;61.30;64106.41;5050217;28;20209;-54
2023/12/10 10:51:24;;;;;;;16.20;10.90;;;;;;;11.24;62.43;64123.59;5051554;28;20288;-54
2023/12/10 10:53:55;;;;;;;20.00;12.20;;;;;;;11.34;60.60;64134.56;5051986;28;20208;-54
2023/12/10 10:56:21;;;;;;;19.27;12.10;;;;;;;11.52;60.50;64156.78;5051646;28;20601;-54
2023/12/10 10:58:46;;;;;;;17.87;11.37;;;;;;;11.63;60.37;64166.34;5033488;28;20213;-54
2023/12/10 11:01:36;;;;;;;23.60;12.20;;;;;;;10.99;62.00;64096.22;5051488;28;20244;-55
2023/12/10 11:04:02;;;;;;;18.10;11.80;;;;;;;10.81;62.02;64079.03;5051414;28;20209;-54
2023/12/10 11:06:28;;;;;;;20.00;12.37;;;;;;;10.83;62.02;64084.28;5051291;28;20216;-55
2023/12/10 11:09:00;;;;;;;20.30;12.77;;;;;;;11.04;60.51;64101.69;5033376;28;20594;-58
2023/12/10 11:11:26;;;;;;;21.17;12.93;;;;;;;10.98;61.13;64098.19;5051314;28;20272;-56
2023/12/10 11:13:53;;;;;;;19.17;12.00;;;;;;;11.28;60.94;64130.50;5051416;28;20200;-53
2023/12/10 11:16:21;;;;;;;21.57;12.87;;;;;;;10.71;61.64;64068.63;5049948;28;20199;-56